Time;durP1;ratioP1;P1;durP2;ratioP2;P2;SDS_P1;SDS_P2;PMS_P1;PMS_P2;Temp;Humidity;BMP_temperature;BMP_pressure;BME280_temperature;BME280_humidity;BME280_pressure;Samples;Min_cycle;Max_cycle;Signal;HPM_P1;HPM_P2
2022/05/26 00:00:31;;;;;;;2.63;0.70;;;;;;;15.26;68.76;101507.53;4962434;28;20034;-76
2022/05/26 00:02:56;;;;;;;1.67;0.70;;;;;;;15.32;68.70;101502.44;4963904;28;20042;-76
2022/05/26 00:05:22;;;;;;;4.57;0.90;;;;;;;15.28;68.88;101510.78;4951005;28;20070;-76
2022/05/26 00:07:47;;;;;;;5.45;1.00;;;;;;;15.33;68.61;101514.53;4966230;28;20039;-76
2022/05/26 00:10:13;;;;;;;1.63;0.82;;;;;;;15.29;69.05;101510.59;4968024;28;20030;-75
2022/05/26 00:12:39;;;;;;;4.70;1.10;;;;;;;15.43;68.96;101511.69;4968012;28;20169;-76
2022/05/26 00:15:06;;;;;;;4.00;1.17;;;;;;;15.37;69.15;101518.41;4965564;28;20034;-76
2022/05/26 00:17:32;;;;;;;4.38;0.90;;;;;;;15.24;69.76;101512.91;4968444;28;20061;-76
2022/05/26 00:19:58;;;;;;;4.70;1.10;;;;;;;15.28;69.76;101511.59;4948523;28;20585;-76
2022/05/26 00:22:24;;;;;;;3.20;0.88;;;;;;;15.28;69.81;101516.81;4961630;28;20035;-76
2022/05/26 00:24:50;;;;;;;4.68;0.80;;;;;;;15.27;69.94;101507.34;4968236;28;20041;-75
2022/05/26 00:27:16;;;;;;;2.92;1.33;;;;;;;15.30;69.89;101514.03;4964624;28;20043;-75
2022/05/26 00:29:41;;;;;;;2.53;0.75;;;;;;;15.17;70.50;101519.81;4969214;28;20043;-76
2022/05/26 00:32:07;;;;;;;3.75;0.90;;;;;;;15.21;70.69;101517.66;4954645;28;20038;-75
2022/05/26 00:34:33;;;;;;;1.92;0.80;;;;;;;15.24;70.67;101527.75;4965962;28;20317;-75
2022/05/26 00:36:58;;;;;;;6.05;0.90;;;;;;;15.15;71.10;101527.81;4946729;28;20399;-76
2022/05/26 00:39:25;;;;;;;5.95;1.20;;;;;;;15.19;70.87;101520.44;4952851;28;20691;-75
2022/05/26 00:41:55;;;;;;;8.60;1.20;;;;;;;15.16;71.09;101531.22;4951211;28;20041;-76
2022/05/26 00:44:21;;;;;;;3.55;1.10;;;;;;;15.27;71.22;101522.22;4966652;28;20038;-76
2022/05/26 00:46:53;;;;;;;1.98;0.70;;;;;;;15.19;71.24;101516.03;4954135;28;20053;-75
2022/05/26 00:49:42;;;;;;;4.25;1.00;;;;;;;15.12;71.93;101528.13;4971242;28;20105;-75
2022/05/26 00:52:17;;;;;;;2.47;0.93;;;;;;;15.20;71.50;101516.88;4967364;28;20035;-76
2022/05/26 00:54:46;;;;;;;6.82;0.82;;;;;;;15.15;71.94;101516.53;4966487;28;20023;-75
2022/05/26 00:57:21;;;;;;;1.92;0.90;;;;;;;15.09;72.13;101518.03;4951870;28;20035;-77
2022/05/26 00:59:51;;;;;;;2.75;1.02;;;;;;;15.07;72.21;101522.63;4965927;28;20121;-76
2022/05/26 01:02:20;;;;;;;3.80;1.23;;;;;;;15.06;72.47;101526.19;4966258;28;20945;-75
2022/05/26 01:04:50;;;;;;;4.13;1.10;;;;;;;15.03;72.83;101521.31;4948340;28;20030;-76
2022/05/26 01:07:21;;;;;;;4.55;1.08;;;;;;;15.18;72.44;101535.31;4962079;28;20043;-76
2022/05/26 01:09:46;;;;;;;4.05;1.15;;;;;;;15.21;73.00;101525.50;4966654;28;20042;-75
2022/05/26 01:12:12;;;;;;;1.35;0.70;;;;;;;15.07;72.93;101533.06;4957626;28;20451;-75
2022/05/26 01:14:42;;;;;;;2.92;1.00;;;;;;;15.11;72.97;101531.75;4968471;28;20030;-76
2022/05/26 01:17:20;;;;;;;4.22;1.05;;;;;;;15.10;73.12;101534.50;4964942;28;20542;-76
2022/05/26 01:20:14;;;;;;;3.78;1.10;;;;;;;14.99;73.66;101528.69;4964855;28;20064;-75
2022/05/26 01:22:59;;;;;;;6.53;1.42;;;;;;;15.06;73.54;101533.22;4963847;28;20047;-75
2022/05/26 01:25:43;;;;;;;1.92;1.10;;;;;;;14.96;73.91;101538.63;4966700;28;20027;-76
2022/05/26 01:28:30;;;;;;;2.78;0.98;;;;;;;15.03;73.96;101531.78;4948067;28;20056;-76
2022/05/26 01:31:06;;;;;;;2.13;1.10;;;;;;;14.96;74.38;101533.41;4964509;28;20069;-75
2022/05/26 01:33:48;;;;;;;1.85;1.50;;;;;;;14.94;74.71;101538.78;4944428;28;20042;-75
2022/05/26 01:36:28;;;;;;;3.97;1.33;;;;;;;14.93;74.65;101528.50;4961889;28;20050;-76
2022/05/26 01:39:02;;;;;;;4.90;1.02;;;;;;;14.97;74.68;101540.25;4960441;28;20097;-76
2022/05/26 01:41:39;;;;;;;3.00;1.23;;;;;;;14.94;74.89;101528.34;4947151;28;20449;-75
2022/05/26 01:44:39;;;;;;;3.40;1.17;;;;;;;14.89;75.49;101533.25;4947735;28;20472;-75
2022/05/26 01:47:43;;;;;;;3.28;1.13;;;;;;;14.85;75.75;101531.97;4960337;28;20037;-75
2022/05/26 01:50:28;;;;;;;2.38;1.27;;;;;;;14.88;75.69;101530.81;4927025;28;20060;-76
2022/05/26 01:53:19;;;;;;;2.92;1.30;;;;;;;14.81;76.53;101527.25;4958489;28;20035;-75
2022/05/26 01:56:06;;;;;;;4.10;1.50;;;;;;;14.83;76.07;101530.50;4961733;28;20038;-76
2022/05/26 01:58:35;;;;;;;4.53;1.40;;;;;;;14.85;76.31;101533.75;4960411;28;20062;-75
2022/05/26 02:01:08;;;;;;;3.33;1.45;;;;;;;14.84;76.40;101534.72;4964183;28;20077;-76
2022/05/26 02:03:39;;;;;;;3.00;1.70;;;;;;;14.81;76.44;101535.88;4962822;28;20057;-76
2022/05/26 02:06:12;;;;;;;2.33;1.27;;;;;;;14.83;76.94;101533.13;4945059;28;20042;-76
2022/05/26 02:08:42;;;;;;;3.70;1.27;;;;;;;14.77;77.09;101539.81;4962627;28;20082;-76
2022/05/26 02:11:12;;;;;;;4.88;2.25;;;;;;;14.78;77.37;101546.66;4962568;28;20038;-76
2022/05/26 02:13:43;;;;;;;3.45;1.65;;;;;;;14.73;77.41;101555.00;4963402;28;20060;-76
2022/05/26 02:16:16;;;;;;;3.13;1.38;;;;;;;14.64;77.95;101555.16;4965257;28;20058;-75
2022/05/26 02:18:52;;;;;;;8.60;1.80;;;;;;;14.76;77.28;101549.44;4963014;28;20050;-75
2022/05/26 02:21:46;;;;;;;3.50;1.40;;;;;;;14.68;77.91;101565.09;4967151;28;20085;-75
2022/05/26 02:24:22;;;;;;;4.65;1.50;;;;;;;14.62;78.34;101555.34;4945592;28;20054;-75
2022/05/26 02:26:47;;;;;;;2.90;1.63;;;;;;;14.64;78.29;101569.03;4946881;28;20065;-76
2022/05/26 02:31:57;;;;;;;4.63;1.50;;;;;;;14.63;78.69;101559.56;4961336;28;20046;-75
2022/05/26 02:34:24;;;;;;;2.15;1.40;;;;;;;14.64;78.72;101561.19;4967659;28;20038;-75
2022/05/26 02:36:55;;;;;;;2.92;2.08;;;;;;;14.71;78.30;101572.63;4962381;28;20282;-75
2022/05/26 02:39:20;;;;;;;5.03;1.40;;;;;;;14.73;78.51;101564.59;4946745;28;20121;-76
2022/05/26 02:41:47;;;;;;;2.88;1.40;;;;;;;14.70;78.63;101562.34;4962921;28;20039;-75
2022/05/26 02:44:12;;;;;;;5.13;1.73;;;;;;;14.68;78.83;101567.72;4962782;28;20049;-76
2022/05/26 02:47:08;;;;;;;6.18;1.70;;;;;;;14.59;78.60;101566.91;4949963;28;20490;-76
2022/05/26 02:49:56;;;;;;;7.00;1.40;;;;;;;14.63;79.20;101569.19;4964082;28;20125;-76
2022/05/26 02:52:51;;;;;;;4.75;1.55;;;;;;;14.55;79.35;101569.97;4943431;28;20062;-75
2022/05/26 02:55:33;;;;;;;4.93;1.48;;;;;;;14.58;79.59;101573.09;4945101;28;20106;-75
2022/05/26 02:58:22;;;;;;;3.83;1.42;;;;;;;14.67;79.64;101575.69;4959510;28;20546;-76
2022/05/26 03:01:03;;;;;;;2.60;1.35;;;;;;;14.53;79.85;101577.97;4928537;28;20153;-76
2022/05/26 03:03:35;;;;;;;2.40;1.73;;;;;;;14.60;79.56;101578.16;4960440;28;20081;-76
2022/05/26 03:06:29;;;;;;;3.10;1.48;;;;;;;14.58;79.83;101580.13;4960496;28;20073;-76
2022/05/26 03:08:55;;;;;;;4.43;1.70;;;;;;;14.49;80.23;101579.28;4944395;28;20042;-76
2022/05/26 03:11:23;;;;;;;3.88;1.92;;;;;;;14.56;80.12;101577.66;4962873;28;20236;-75
2022/05/26 03:13:50;;;;;;;6.47;1.77;;;;;;;14.49;81.20;101574.06;4951476;28;20206;-76
2022/05/26 03:16:16;;;;;;;7.22;1.83;;;;;;;14.50;81.75;101580.88;4968151;28;20027;-76
2022/05/26 03:18:42;;;;;;;5.63;2.00;;;;;;;14.47;83.90;101578.63;4965343;28;20034;-76
2022/05/26 03:21:08;;;;;;;6.75;2.05;;;;;;;14.37;85.26;101585.78;4967793;28;20454;-76
2022/05/26 03:23:36;;;;;;;9.82;2.08;;;;;;;14.34;86.24;101586.13;4965216;28;20031;-76
2022/05/26 03:26:03;;;;;;;3.33;2.20;;;;;;;14.23;87.39;101587.22;4967990;28;20031;-76
2022/05/26 03:28:30;;;;;;;6.93;2.38;;;;;;;14.17;88.00;101585.28;4950660;28;20065;-76
2022/05/26 03:30:56;;;;;;;5.90;2.00;;;;;;;14.14;89.11;101586.38;4964702;28;20138;-76
2022/05/26 03:33:21;;;;;;;6.00;2.38;;;;;;;14.19;88.87;101591.16;4951276;28;20055;-76
2022/05/26 03:41:20;;;;;;;4.40;2.47;;;;;;;14.05;90.36;101600.38;4965462;28;20054;-76
2022/05/26 03:43:49;;;;;;;7.68;2.63;;;;;;;14.08;90.55;101599.28;4949052;28;20043;-76
2022/05/26 03:46:15;;;;;;;9.10;3.25;;;;;;;14.01;90.82;101597.31;4946852;28;20114;-76
2022/05/26 03:48:41;;;;;;;5.00;2.60;;;;;;;14.05;90.33;101599.56;4963380;28;20185;-76
2022/05/26 03:51:07;;;;;;;8.40;2.80;;;;;;;14.13;89.99;101600.41;4952476;28;20034;-76
2022/05/26 03:53:33;;;;;;;7.72;2.90;;;;;;;14.13;89.15;101600.41;4963148;28;20035;-76
2022/05/26 03:55:59;;;;;;;6.15;2.45;;;;;;;14.04;90.11;101611.81;4966047;28;20100;-75
2022/05/26 03:58:25;;;;;;;13.35;4.18;;;;;;;14.07;90.67;101611.50;4966390;28;20046;-76
2022/05/26 04:00:51;;;;;;;10.55;2.75;;;;;;;14.04;91.13;101617.03;4971353;28;20049;-76
2022/05/26 04:03:17;;;;;;;7.13;2.80;;;;;;;14.00;91.63;101621.75;4948764;28;20074;-76
2022/05/26 04:05:42;;;;;;;6.43;2.92;;;;;;;13.94;91.55;101624.19;4965769;28;20061;-76
2022/05/26 04:08:09;;;;;;;14.45;3.63;;;;;;;13.95;91.87;101629.22;4946744;28;20050;-76
2022/05/26 04:10:35;;;;;;;8.38;2.70;;;;;;;13.97;91.33;101627.25;4952406;28;20042;-77
2022/05/26 04:13:04;;;;;;;10.18;3.40;;;;;;;13.97;91.26;101631.66;4951121;28;20026;-76
2022/05/26 04:15:30;;;;;;;11.18;4.00;;;;;;;13.88;92.25;101632.59;4956108;28;20147;-76
2022/05/26 04:17:55;;;;;;;10.77;3.95;;;;;;;13.94;92.08;101639.81;4967557;28;20069;-76
2022/05/26 04:20:22;;;;;;;15.00;4.43;;;;;;;13.93;92.66;101633.75;4963090;28;20043;-76
2022/05/26 04:22:49;;;;;;;12.45;3.88;;;;;;;13.97;92.02;101634.28;4965604;28;20042;-75
2022/05/26 04:25:17;;;;;;;18.13;4.93;;;;;;;13.89;92.68;101645.50;4962452;28;20031;-76
2022/05/26 04:27:42;;;;;;;11.50;4.15;;;;;;;13.89;93.48;101636.84;4959906;28;20092;-76
2022/05/26 04:30:10;;;;;;;10.15;3.92;;;;;;;13.95;93.30;101644.03;4945578;28;20419;-76
2022/05/26 04:32:36;;;;;;;14.40;3.60;;;;;;;13.94;93.01;101639.81;4965444;28;20126;-76
2022/05/26 04:35:02;;;;;;;9.80;3.42;;;;;;;13.95;93.26;101651.88;4949608;28;20023;-76
2022/05/26 04:37:28;;;;;;;11.88;3.97;;;;;;;13.96;93.36;101653.50;4945805;28;20037;-77
2022/05/26 04:39:55;;;;;;;14.80;3.90;;;;;;;13.99;93.30;101656.63;4963097;28;20035;-76
2022/05/26 04:42:22;;;;;;;11.15;4.30;;;;;;;13.97;93.02;101662.94;4948645;28;20034;-77
2022/05/26 04:44:49;;;;;;;9.63;3.90;;;;;;;13.93;92.76;101657.22;4949064;28;20050;-76
2022/05/26 04:47:15;;;;;;;11.07;3.42;;;;;;;13.98;92.97;101662.00;4942938;28;20043;-76
2022/05/26 04:49:41;;;;;;;13.25;4.25;;;;;;;14.10;92.35;101659.91;4965305;28;20038;-76
2022/05/26 04:52:09;;;;;;;12.93;4.15;;;;;;;14.07;92.74;101673.25;4948797;28;20034;-77
2022/05/26 04:54:38;;;;;;;12.40;4.18;;;;;;;14.05;92.14;101664.78;4962301;28;20423;-76
2022/05/26 04:57:05;;;;;;;13.73;4.25;;;;;;;14.02;92.71;101665.91;4963890;28;20038;-76
2022/05/26 04:59:31;;;;;;;12.68;4.38;;;;;;;14.09;91.49;101671.28;4962872;28;20039;-77
2022/05/26 05:01:57;;;;;;;13.38;4.90;;;;;;;14.07;91.36;101668.88;4948981;28;20042;-76
2022/05/26 05:04:24;;;;;;;19.17;4.82;;;;;;;14.08;91.58;101672.28;4964248;28;20038;-76
2022/05/26 05:06:50;;;;;;;13.48;5.00;;;;;;;14.02;92.12;101673.72;4960302;28;20041;-76
2022/05/26 05:09:16;;;;;;;18.17;4.93;;;;;;;14.06;92.33;101680.25;4962080;28;20104;-76
2022/05/26 05:11:42;;;;;;;19.67;4.65;;;;;;;14.16;91.34;101682.72;4966433;28;20047;-76
2022/05/26 05:14:07;;;;;;;16.88;4.85;;;;;;;14.10;91.67;101685.97;4959644;28;20039;-76
2022/05/26 05:16:37;;;;;;;14.15;4.85;;;;;;;14.07;92.00;101688.91;4944210;28;20030;-76
2022/05/26 05:19:02;;;;;;;12.82;4.88;;;;;;;14.16;91.70;101691.38;4963789;28;20117;-76
2022/05/26 05:21:38;;;;;;;14.88;4.55;;;;;;;14.22;91.29;101692.53;4963571;28;20058;-76
2022/05/26 05:24:21;;;;;;;12.73;5.22;;;;;;;14.26;91.23;101691.25;4940496;28;20031;-76
2022/05/26 05:26:52;;;;;;;15.77;4.50;;;;;;;14.32;91.50;101692.41;4958769;28;20035;-76
2022/05/26 05:29:22;;;;;;;18.27;5.15;;;;;;;14.47;90.78;101696.03;4959687;28;20423;-76
2022/05/26 05:31:52;;;;;;;16.42;4.78;;;;;;;14.55;88.92;101696.03;4952280;28;20050;-76
2022/05/26 05:34:27;;;;;;;17.70;5.07;;;;;;;14.47;89.83;101692.63;4960363;28;20055;-76
2022/05/26 05:36:53;;;;;;;17.83;5.97;;;;;;;14.51;89.94;101699.97;4960380;28;20058;-76
2022/05/26 05:39:19;;;;;;;13.13;5.10;;;;;;;14.55;89.75;101696.03;4946347;28;20138;-76
2022/05/26 05:41:44;;;;;;;13.55;4.88;;;;;;;14.60;89.10;101704.25;4942747;28;20046;-76
2022/05/26 05:44:10;;;;;;;15.45;5.13;;;;;;;14.76;88.38;101713.06;4963949;28;20090;-76
2022/05/26 05:46:53;;;;;;;19.10;5.63;;;;;;;14.84;87.72;101710.47;4963755;28;20062;-76
2022/05/26 05:49:20;;;;;;;13.00;5.97;;;;;;;15.03;86.48;101718.97;4943630;28;20043;-76
2022/05/26 05:51:45;;;;;;;13.27;5.25;;;;;;;15.03;85.39;101714.59;4961534;28;20042;-77
2022/05/26 05:54:11;;;;;;;25.80;7.70;;;;;;;15.02;86.36;101723.38;4960005;28;20216;-76
2022/05/26 05:56:36;;;;;;;17.98;6.15;;;;;;;15.19;84.45;101722.41;4959117;28;20035;-76
2022/05/26 05:59:02;;;;;;;15.52;6.45;;;;;;;15.22;84.23;101731.72;4956255;28;20035;-76
2022/05/26 06:01:27;;;;;;;17.63;5.55;;;;;;;15.30;84.06;101720.44;4947510;28;20395;-76
2022/05/26 06:03:53;;;;;;;17.38;7.20;;;;;;;15.38;83.26;101723.84;4945579;28;20034;-77
2022/05/26 06:06:18;;;;;;;22.42;6.80;;;;;;;15.45;83.79;101734.47;4961789;28;20101;-76
2022/05/26 06:08:44;;;;;;;11.55;5.30;;;;;;;15.35;83.70;101728.59;4964061;28;20049;-76
2022/05/26 06:11:09;;;;;;;18.15;6.28;;;;;;;15.45;83.08;101731.06;4964791;28;20038;-76
2022/05/26 06:13:35;;;;;;;21.10;6.63;;;;;;;15.42;83.32;101734.00;4951045;28;20035;-76
2022/05/26 06:16:01;;;;;;;25.20;6.80;;;;;;;15.42;83.28;101736.59;4965274;28;20038;-76
2022/05/26 06:18:26;;;;;;;20.98;6.85;;;;;;;15.43;82.04;101743.47;4947599;28;20034;-77
2022/05/26 06:21:03;;;;;;;16.95;6.88;;;;;;;15.53;81.59;101741.47;4949520;28;20034;-76
2022/05/26 06:23:29;;;;;;;15.30;5.80;;;;;;;15.50;81.73;101744.41;4957244;28;20045;-77
2022/05/26 06:25:55;;;;;;;18.15;6.57;;;;;;;15.46;81.77;101743.94;4946872;28;20034;-76
2022/05/26 06:31:04;;;;;;;17.20;6.45;;;;;;;15.69;82.42;101754.53;4964421;28;20035;-76
2022/05/26 06:38:59;;;;;;;13.80;6.43;;;;;;;15.90;80.96;101750.59;4960774;28;20062;-76
2022/05/26 06:44:09;;;;;;;19.98;6.60;;;;;;;15.89;80.01;101764.66;4961267;28;20023;-76
2022/05/26 06:46:34;;;;;;;17.75;6.50;;;;;;;15.88;79.91;101763.84;4953397;28;20039;-76
2022/05/26 06:49:00;;;;;;;19.48;6.65;;;;;;;15.92;80.24;101769.56;4965612;28;20037;-76
2022/05/26 06:51:28;;;;;;;18.25;6.18;;;;;;;15.95;80.19;101770.03;4950577;28;20049;-77
2022/05/26 06:53:54;;;;;;;17.55;7.25;;;;;;;16.12;79.79;101768.19;4951406;28;20558;-77
2022/05/26 06:56:20;;;;;;;23.00;7.03;;;;;;;16.16;78.65;101766.00;4951729;28;20029;-76
2022/05/26 06:58:46;;;;;;;16.85;6.35;;;;;;;16.24;78.43;101775.66;4946027;28;20459;-76
2022/05/26 07:01:14;;;;;;;13.18;5.93;;;;;;;16.14;79.00;101781.06;4949658;28;20043;-76
2022/05/26 07:03:40;;;;;;;17.95;6.95;;;;;;;16.17;78.67;101785.16;4945265;28;20038;-77
2022/05/26 07:06:13;;;;;;;20.50;7.20;;;;;;;16.37;76.96;101785.56;4964141;28;20029;-76
2022/05/26 07:08:38;;;;;;;19.05;5.60;;;;;;;16.43;75.42;101783.09;4957960;28;20164;-77
2022/05/26 07:11:04;;;;;;;17.92;6.82;;;;;;;16.48;76.55;101791.25;4950959;28;20049;-76
2022/05/26 07:13:29;;;;;;;23.38;7.35;;;;;;;16.91;75.35;101783.84;4963210;28;20035;-76
2022/05/26 07:15:55;;;;;;;18.08;6.30;;;;;;;17.01;73.94;101788.03;4964543;28;20030;-77
2022/05/26 07:18:20;;;;;;;16.13;6.18;;;;;;;17.24;73.66;101788.84;4949511;28;20035;-76
2022/05/26 07:20:46;;;;;;;23.25;8.85;;;;;;;17.83;71.29;101788.13;4948237;28;20038;-76
2022/05/26 07:23:11;;;;;;;15.10;6.45;;;;;;;17.77;70.55;101785.44;4963596;28;20494;-76
2022/05/26 07:25:41;;;;;;;18.00;6.32;;;;;;;17.64;71.53;101797.34;4950078;28;20042;-77
2022/05/26 07:28:07;;;;;;;9.93;5.63;;;;;;;17.32;71.79;101799.25;4963218;28;20123;-76
2022/05/26 07:30:32;;;;;;;16.02;6.03;;;;;;;17.24;72.71;101794.09;4960476;28;20047;-76
2022/05/26 07:32:58;;;;;;;17.42;6.28;;;;;;;17.93;71.33;101803.63;4966433;28;20037;-77
2022/05/26 07:35:23;;;;;;;14.32;6.10;;;;;;;18.49;68.36;101793.44;4951533;28;20023;-76
2022/05/26 07:43:18;;;;;;;13.65;5.55;;;;;;;20.27;61.13;101801.41;4967788;28;20130;-77
2022/05/26 07:45:44;;;;;;;18.52;8.95;;;;;;;20.91;60.66;101786.22;4949470;28;20029;-77
2022/05/26 07:48:10;;;;;;;14.32;6.50;;;;;;;21.23;58.67;101789.06;4963994;28;20137;-77
2022/05/26 07:50:35;;;;;;;16.00;7.63;;;;;;;20.80;59.55;101798.16;4965219;28;20169;-77
2022/05/26 07:53:01;;;;;;;17.02;6.28;;;;;;;19.84;60.43;101806.84;4964262;28;20377;-77
2022/05/26 07:55:26;;;;;;;23.52;10.10;;;;;;;19.56;62.67;101812.91;4965541;28;20058;-76
2022/05/26 07:57:53;;;;;;;15.23;5.63;;;;;;;19.10;61.92;101823.84;4967149;28;20035;-76
2022/05/26 08:00:19;;;;;;;18.63;8.20;;;;;;;18.82;63.83;101827.19;4949027;28;20027;-77
2022/05/26 08:02:45;;;;;;;20.63;6.97;;;;;;;18.67;63.87;101824.59;4964514;28;20075;-76
2022/05/26 08:05:12;;;;;;;16.10;6.25;;;;;;;18.81;64.27;101816.88;4949572;28;20452;-77
2022/05/26 08:07:37;;;;;;;24.85;9.35;;;;;;;19.14;63.74;101817.22;4968245;28;20094;-76
2022/05/26 08:10:04;;;;;;;27.05;12.32;;;;;;;19.03;62.69;101831.66;4966344;28;20027;-76
2022/05/26 08:12:29;;;;;;;20.17;5.72;;;;;;;18.79;63.53;101839.88;4960100;28;20046;-77
2022/05/26 08:14:55;;;;;;;19.88;5.88;;;;;;;18.73;64.81;101833.53;4962213;28;20030;-77
2022/05/26 08:17:23;;;;;;;10.18;4.53;;;;;;;18.60;64.86;101833.38;4966641;28;20082;-76
2022/05/26 08:19:49;;;;;;;12.48;4.47;;;;;;;18.46;65.65;101838.47;4967250;28;20038;-77
2022/05/26 08:22:17;;;;;;;12.70;4.78;;;;;;;18.44;65.92;101844.88;4963090;28;20038;-77
2022/05/26 08:24:48;;;;;;;14.85;4.65;;;;;;;18.60;65.92;101851.78;4964030;28;20094;-77
2022/05/26 08:27:13;;;;;;;11.02;5.40;;;;;;;18.61;65.60;101853.38;4948539;28;20638;-77
2022/05/26 08:29:41;;;;;;;19.48;7.10;;;;;;;19.17;63.07;101856.25;4972998;28;20034;-76
2022/05/26 08:32:07;;;;;;;11.57;3.75;;;;;;;19.44;61.98;101851.25;4950974;28;20046;-76
2022/05/26 08:34:32;;;;;;;15.38;4.93;;;;;;;19.40;61.75;101856.09;4951990;28;20035;-77
2022/05/26 08:36:58;;;;;;;11.98;4.53;;;;;;;19.09;62.82;101859.00;4968080;28;20015;-77
2022/05/26 08:39:24;;;;;;;9.40;4.15;;;;;;;19.12;62.83;101855.19;4968456;28;20050;-77
2022/05/26 08:41:53;;;;;;;10.95;4.10;;;;;;;19.46;62.89;101849.25;4950211;28;20038;-76
2022/05/26 08:44:36;;;;;;;10.50;4.32;;;;;;;19.69;62.65;101850.84;4967153;28;20034;-77
2022/05/26 08:47:12;;;;;;;8.50;4.65;;;;;;;20.10;61.58;101858.00;4964650;28;20031;-76
2022/05/26 08:49:44;;;;;;;8.32;3.92;;;;;;;20.26;59.35;101855.06;4959159;28;20053;-77
2022/05/26 08:52:15;;;;;;;10.85;4.30;;;;;;;20.52;57.59;101856.22;4960827;28;20037;-77
2022/05/26 08:55:08;;;;;;;19.38;6.05;;;;;;;20.87;57.14;101856.16;4946584;28;20475;-77
2022/05/26 08:57:40;;;;;;;20.85;9.27;;;;;;;20.39;57.37;101860.41;4963153;28;20042;-76
2022/05/26 09:00:11;;;;;;;23.88;11.00;;;;;;;20.64;57.44;101861.75;4960316;28;20548;-76
2022/05/26 09:02:37;;;;;;;18.13;7.82;;;;;;;21.00;56.28;101861.44;4958536;28;20110;-77
2022/05/26 09:05:08;;;;;;;19.08;9.18;;;;;;;21.45;56.38;101863.56;4958362;28;20043;-77
2022/05/26 09:13:12;;;;;;;12.10;3.40;;;;;;;22.35;51.31;101856.75;4957176;28;20716;-76
2022/05/26 09:15:38;;;;;;;11.95;3.95;;;;;;;22.12;52.92;101865.13;4961129;28;20050;-77
2022/05/26 09:18:15;;;;;;;10.02;2.65;;;;;;;22.60;50.83;101857.88;4943086;28;20169;-77
2022/05/26 09:20:43;;;;;;;13.38;2.65;;;;;;;22.91;49.85;101863.19;4961444;28;20121;-76
2022/05/26 09:23:13;;;;;;;11.43;2.65;;;;;;;22.38;50.94;101866.09;4961047;28;20027;-76
2022/05/26 09:26:03;;;;;;;17.52;3.42;;;;;;;22.62;52.04;101869.03;4963731;28;20101;-77
2022/05/26 09:28:31;;;;;;;5.43;2.08;;;;;;;23.14;49.37;101869.78;4943178;28;20031;-77
2022/05/26 09:31:17;;;;;;;13.27;2.92;;;;;;;23.02;49.25;101864.34;4947501;28;20045;-77
2022/05/26 09:33:43;;;;;;;8.23;2.45;;;;;;;22.26;51.40;101871.19;4945075;28;20042;-77
2022/05/26 09:36:43;;;;;;;13.65;2.88;;;;;;;22.00;52.17;101884.44;4966648;28;20045;-77
2022/05/26 09:39:10;;;;;;;9.32;2.53;;;;;;;21.62;52.97;101871.88;4937712;28;20039;-77
2022/05/26 09:41:44;;;;;;;9.73;2.75;;;;;;;22.24;54.53;101885.59;4962951;28;20418;-77
2022/05/26 09:44:32;;;;;;;10.32;2.80;;;;;;;22.82;50.58;101879.53;4944315;28;20035;-77
2022/05/26 09:47:03;;;;;;;8.23;2.30;;;;;;;23.12;52.28;101880.56;4958276;28;20027;-77
2022/05/26 09:49:40;;;;;;;10.00;3.22;;;;;;;23.12;51.38;101885.88;4956095;28;20045;-77
2022/05/26 09:52:15;;;;;;;9.57;2.67;;;;;;;22.91;50.05;101881.69;4956313;28;20066;-76
2022/05/26 09:54:41;;;;;;;6.95;2.38;;;;;;;22.34;49.73;101883.38;4957778;28;20055;-77
2022/05/26 09:57:25;;;;;;;15.35;3.13;;;;;;;21.80;51.32;101895.03;4943781;28;20023;-77
2022/05/26 09:59:51;;;;;;;9.40;2.35;;;;;;;21.56;51.39;101902.53;4963991;28;20089;-77
2022/05/26 10:02:27;;;;;;;9.20;2.78;;;;;;;20.95;51.78;101913.97;4961240;28;21198;-76
2022/05/26 10:05:11;;;;;;;8.13;2.60;;;;;;;20.66;54.25;101904.53;4959284;28;20331;-76
2022/05/26 10:08:05;;;;;;;8.93;2.47;;;;;;;20.54;54.21;101914.78;4964492;28;20038;-76
2022/05/26 10:10:41;;;;;;;11.00;2.90;;;;;;;21.42;52.02;101904.34;4961805;28;20511;-77
2022/05/26 10:13:18;;;;;;;7.78;2.22;;;;;;;21.98;52.48;101897.84;4957735;28;20049;-77
2022/05/26 10:15:50;;;;;;;11.02;2.33;;;;;;;22.55;51.66;101898.16;4959200;28;20431;-76
2022/05/26 10:18:38;;;;;;;7.25;2.30;;;;;;;22.17;51.15;101896.22;4962264;28;20117;-77
2022/05/26 10:21:37;;;;;;;9.10;2.20;;;;;;;22.83;50.56;101897.81;4930555;28;20043;-77
2022/05/26 10:24:22;;;;;;;9.32;1.98;;;;;;;22.86;49.17;101897.38;4947831;28;20081;-77
2022/05/26 10:27:23;;;;;;;7.45;2.05;;;;;;;22.24;49.44;101901.47;4963216;28;20038;-77
2022/05/26 10:30:04;;;;;;;7.47;1.90;;;;;;;21.81;51.07;101915.13;4948085;28;20066;-76
2022/05/26 10:32:32;;;;;;;8.48;2.25;;;;;;;21.55;49.92;101908.84;4963429;28;20122;-75
2022/05/26 10:35:20;;;;;;;5.75;2.33;;;;;;;21.29;49.94;101907.75;4943706;28;20534;-77
2022/05/26 10:38:04;;;;;;;7.75;1.80;;;;;;;21.91;50.20;101905.78;4949013;28;20042;-77
2022/05/26 10:40:32;;;;;;;7.95;1.90;;;;;;;22.38;48.78;101905.72;4961128;28;20042;-77
2022/05/26 10:43:09;;;;;;;7.45;1.80;;;;;;;22.28;49.47;101900.88;4958489;28;20042;-77
2022/05/26 10:45:39;;;;;;;8.38;2.10;;;;;;;22.27;48.97;101901.88;4944129;28;20043;-76
2022/05/26 10:48:05;;;;;;;13.95;2.20;;;;;;;22.09;48.35;101913.06;4957653;28;20149;-77
2022/05/26 10:50:35;;;;;;;7.03;2.13;;;;;;;21.76;50.06;101918.38;4957356;28;20061;-76
2022/05/26 10:53:14;;;;;;;10.35;2.53;;;;;;;21.56;49.71;101916.53;4960571;28;20030;-77
2022/05/26 10:55:52;;;;;;;11.75;2.33;;;;;;;21.45;49.88;101911.06;4947999;28;20121;-77
2022/05/26 10:58:44;;;;;;;12.18;2.00;;;;;;;20.98;51.16;101921.47;4961479;28;20047;-77
2022/05/26 11:01:29;;;;;;;6.85;1.70;;;;;;;21.17;52.14;101914.63;4955914;28;20530;-77
2022/05/26 11:04:04;;;;;;;8.88;2.30;;;;;;;21.45;50.73;101918.97;4960996;28;20035;-77
2022/05/26 11:06:33;;;;;;;12.23;2.00;;;;;;;21.44;49.36;101920.81;4953005;28;20480;-77
2022/05/26 11:09:08;;;;;;;6.85;2.03;;;;;;;21.31;48.77;101915.47;4947763;28;20554;-77
2022/05/26 11:11:45;;;;;;;6.88;1.90;;;;;;;21.52;49.50;101925.88;4961494;28;20066;-77
2022/05/26 11:17:39;;;;;;;5.78;1.50;;;;;;;21.44;49.53;101922.59;4958367;28;20453;-77
2022/05/26 11:20:28;;;;;;;7.00;1.48;;;;;;;21.37;50.06;101915.47;4962939;28;20089;-77
2022/05/26 11:23:02;;;;;;;6.50;1.75;;;;;;;21.86;49.69;101918.78;4960902;28;20050;-77
2022/05/26 11:25:31;;;;;;;10.82;2.05;;;;;;;22.20;50.06;101913.47;4959412;28;20050;-76
2022/05/26 11:28:03;;;;;;;5.40;1.55;;;;;;;22.46;50.66;101902.84;4947103;28;20035;-75
2022/05/26 11:36:32;;;;;;;5.90;1.77;;;;;;;21.34;49.90;101925.59;4964475;28;20035;-75
2022/05/26 11:39:01;;;;;;;9.65;1.88;;;;;;;21.23;49.50;101928.84;4948382;28;20463;-77
2022/05/26 11:41:35;;;;;;;9.75;2.42;;;;;;;21.37;51.35;101919.94;4949959;28;20031;-77
2022/05/26 11:44:10;;;;;;;7.43;2.15;;;;;;;21.61;51.74;101928.34;4945917;28;20042;-78
2022/05/26 11:46:41;;;;;;;10.70;2.60;;;;;;;21.48;49.33;101921.22;4953117;28;20043;-77
2022/05/26 11:49:11;;;;;;;18.25;8.18;;;;;;;21.35;50.08;101924.63;4947572;28;20034;-77
2022/05/26 11:51:42;;;;;;;11.23;2.35;;;;;;;21.27;49.97;101924.81;4949197;28;20034;-77
2022/05/26 11:54:10;;;;;;;8.25;2.08;;;;;;;21.26;51.03;101923.16;4964616;28;20058;-77
2022/05/26 11:56:39;;;;;;;5.95;1.63;;;;;;;21.46;50.28;101917.97;4963526;28;20098;-77
2022/05/26 11:59:17;;;;;;;7.80;1.75;;;;;;;21.78;49.13;101906.59;4966062;28;20035;-76
2022/05/26 12:01:45;;;;;;;7.03;2.83;;;;;;;21.75;49.58;101917.56;4967409;28;20050;-77
2022/05/26 12:04:25;;;;;;;5.47;1.88;;;;;;;22.12;49.74;101917.13;4964450;28;20618;-76
2022/05/26 12:06:59;;;;;;;7.20;1.70;;;;;;;21.96;48.70;101919.19;4949623;28;20034;-77
2022/05/26 12:09:29;;;;;;;4.88;1.50;;;;;;;21.50;49.47;101913.91;4950595;28;20038;-76
2022/05/26 12:11:59;;;;;;;4.85;1.60;;;;;;;21.42;48.79;101920.16;4963385;28;20472;-76
2022/05/26 12:14:36;;;;;;;5.82;1.67;;;;;;;20.99;50.89;101918.63;4949791;28;20036;-76
2022/05/26 12:17:39;;;;;;;5.05;1.83;;;;;;;20.92;51.46;101923.06;4960660;28;20097;-77
2022/05/26 12:20:11;;;;;;;8.52;1.95;;;;;;;21.22;50.74;101914.03;4959168;28;20035;-77